sensor_id;sensor_type;location;lat;lon;timestamp;temperature;humidity
16966;DHT22;8599;47.852;12.070;2023-04-06T00:00:57;1.80;99.90
16966;DHT22;8599;47.852;12.070;2023-04-06T00:03:24;1.80;99.90
16966;DHT22;8599;47.852;12.070;2023-04-06T00:05:51;1.80;99.90
16966;DHT22;8599;47.852;12.070;2023-04-06T00:08:18;1.90;99.90
16966;DHT22;8599;47.852;12.070;2023-04-06T00:10:47;1.90;99.90
16966;DHT22;8599;47.852;12.070;2023-04-06T00:13:14;1.90;99.90
16966;DHT22;8599;47.852;12.070;2023-04-06T00:15:40;1.80;99.90
16966;DHT22;8599;47.852;12.070;2023-04-06T00:18:09;1.70;99.90
16966;DHT22;8599;47.852;12.070;2023-04-06T00:20:36;1.70;99.90
16966;DHT22;8599;47.852;12.070;2023-04-06T00:23:03;1.70;99.90
16966;DHT22;8599;47.852;12.070;2023-04-06T00:25:30;1.70;99.90
16966;DHT22;8599;47.852;12.070;2023-04-06T00:27:57;1.60;99.90
16966;DHT22;8599;47.852;12.070;2023-04-06T00:30:24;1.50;99.90
16966;DHT22;8599;47.852;12.070;2023-04-06T00:32:50;1.50;99.90
16966;DHT22;8599;47.852;12.070;2023-04-06T00:35:19;1.50;99.90
16966;DHT22;8599;47.852;12.070;2023-04-06T00:37:46;1.60;99.90
16966;DHT22;8599;47.852;12.070;2023-04-06T00:40:14;1.60;99.90
16966;DHT22;8599;47.852;12.070;2023-04-06T00:42:41;1.70;99.90
16966;DHT22;8599;47.852;12.070;2023-04-06T00:45:09;1.70;99.90
16966;DHT22;8599;47.852;12.070;2023-04-06T00:47:36;1.70;99.90
16966;DHT22;8599;47.852;12.070;2023-04-06T00:50:04;1.60;99.90
16966;DHT22;8599;47.852;12.070;2023-04-06T00:52:33;1.60;99.90
16966;DHT22;8599;47.852;12.070;2023-04-06T00:55:00;1.50;99.90
16966;DHT22;8599;47.852;12.070;2023-04-06T00:57:27;1.40;99.90
16966;DHT22;8599;47.852;12.070;2023-04-06T00:59:54;1.30;99.90
16966;DHT22;8599;47.852;12.070;2023-04-06T01:02:21;1.20;99.90
16966;DHT22;8599;47.852;12.070;2023-04-06T01:04:48;1.00;99.90
16966;DHT22;8599;47.852;12.070;2023-04-06T01:07:15;0.80;99.90
16966;DHT22;8599;47.852;12.070;2023-04-06T01:09:43;0.80;99.90
16966;DHT22;8599;47.852;12.070;2023-04-06T01:12:10;0.90;99.90
16966;DHT22;8599;47.852;12.070;2023-04-06T01:14:37;1.00;99.90
16966;DHT22;8599;47.852;12.070;2023-04-06T01:17:04;1.10;99.90
16966;DHT22;8599;47.852;12.070;2023-04-06T01:19:30;1.10;99.90
16966;DHT22;8599;47.852;12.070;2023-04-06T01:21:57;1.10;99.90
16966;DHT22;8599;47.852;12.070;2023-04-06T01:24:26;1.10;99.90
16966;DHT22;8599;47.852;12.070;2023-04-06T01:26:53;1.10;99.90
16966;DHT22;8599;47.852;12.070;2023-04-06T01:29:20;1.10;99.90
16966;DHT22;8599;47.852;12.070;2023-04-06T01:31:47;1.20;99.90
16966;DHT22;8599;47.852;12.070;2023-04-06T01:34:14;1.20;99.90
16966;DHT22;8599;47.852;12.070;2023-04-06T01:36:40;1.10;99.90
16966;DHT22;8599;47.852;12.070;2023-04-06T01:39:07;1.00;99.90
16966;DHT22;8599;47.852;12.070;2023-04-06T01:41:36;0.80;99.90
16966;DHT22;8599;47.852;12.070;2023-04-06T01:44:03;0.70;99.90
16966;DHT22;8599;47.852;12.070;2023-04-06T01:46:30;0.70;99.90
16966;DHT22;8599;47.852;12.070;2023-04-06T01:48:57;0.70;99.90
16966;DHT22;8599;47.852;12.070;2023-04-06T01:51:24;0.80;99.90
16966;DHT22;8599;47.852;12.070;2023-04-06T01:53:51;0.80;99.90
16966;DHT22;8599;47.852;12.070;2023-04-06T01:56:18;1.00;99.90
16966;DHT22;8599;47.852;12.070;2023-04-06T01:58:46;1.00;99.90
16966;DHT22;8599;47.852;12.070;2023-04-06T02:01:13;1.10;99.90
16966;DHT22;8599;47.852;12.070;2023-04-06T02:03:40;0.80;99.90
16966;DHT22;8599;47.852;12.070;2023-04-06T02:06:07;0.80;99.90
16966;DHT22;8599;47.852;12.070;2023-04-06T02:08:34;0.70;99.90
16966;DHT22;8599;47.852;12.070;2023-04-06T02:11:01;0.70;99.90
16966;DHT22;8599;47.852;12.070;2023-04-06T02:13:28;0.60;99.90
16966;DHT22;8599;47.852;12.070;2023-04-06T02:15:56;0.50;99.90
16966;DHT22;8599;47.852;12.070;2023-04-06T02:18:24;0.60;99.90
16966;DHT22;8599;47.852;12.070;2023-04-06T02:20:51;0.70;99.90
16966;DHT22;8599;47.852;12.070;2023-04-06T02:23:17;0.80;99.90
16966;DHT22;8599;47.852;12.070;2023-04-06T02:25:44;0.80;99.90
16966;DHT22;8599;47.852;12.070;2023-04-06T02:28:11;0.60;99.90
16966;DHT22;8599;47.852;12.070;2023-04-06T02:30:38;0.60;99.90
16966;DHT22;8599;47.852;12.070;2023-04-06T02:33:07;0.50;99.90
16966;DHT22;8599;47.852;12.070;2023-04-06T02:35:33;0.50;99.90
16966;DHT22;8599;47.852;12.070;2023-04-06T02:38:00;0.50;99.90
16966;DHT22;8599;47.852;12.070;2023-04-06T02:40:27;0.60;99.90
16966;DHT22;8599;47.852;12.070;2023-04-06T02:42:54;0.80;99.90
16966;DHT22;8599;47.852;12.070;2023-04-06T02:45:21;0.80;99.90
16966;DHT22;8599;47.852;12.070;2023-04-06T02:47:48;0.70;99.90
16966;DHT22;8599;47.852;12.070;2023-04-06T02:50:16;0.70;99.90
16966;DHT22;8599;47.852;12.070;2023-04-06T02:52:43;0.70;99.90
16966;DHT22;8599;47.852;12.070;2023-04-06T02:55:10;0.70;99.90
16966;DHT22;8599;47.852;12.070;2023-04-06T02:57:37;0.60;99.90
16966;DHT22;8599;47.852;12.070;2023-04-06T03:00:05;0.60;99.90
16966;DHT22;8599;47.852;12.070;2023-04-06T03:02:32;0.60;99.90
16966;DHT22;8599;47.852;12.070;2023-04-06T03:04:59;0.70;99.90
16966;DHT22;8599;47.852;12.070;2023-04-06T03:07:27;0.70;99.90
16966;DHT22;8599;47.852;12.070;2023-04-06T03:09:55;0.80;99.90
16966;DHT22;8599;47.852;12.070;2023-04-06T03:12:22;0.80;99.90
16966;DHT22;8599;47.852;12.070;2023-04-06T03:14:48;0.80;99.90
16966;DHT22;8599;47.852;12.070;2023-04-06T03:17:15;0.80;99.90
16966;DHT22;8599;47.852;12.070;2023-04-06T03:19:42;0.80;99.90
16966;DHT22;8599;47.852;12.070;2023-04-06T03:22:09;0.80;99.90
16966;DHT22;8599;47.852;12.070;2023-04-06T03:24:37;0.80;99.90
16966;DHT22;8599;47.852;12.070;2023-04-06T03:27:04;0.70;99.90
16966;DHT22;8599;47.852;12.070;2023-04-06T03:29:31;0.60;99.90
16966;DHT22;8599;47.852;12.070;2023-04-06T03:31:58;0.60;99.90
16966;DHT22;8599;47.852;12.070;2023-04-06T03:34:25;0.40;99.90
16966;DHT22;8599;47.852;12.070;2023-04-06T03:36:52;0.50;99.90
16966;DHT22;8599;47.852;12.070;2023-04-06T03:39:19;0.50;99.90
16966;DHT22;8599;47.852;12.070;2023-04-06T03:41:47;0.50;99.90
16966;DHT22;8599;47.852;12.070;2023-04-06T03:44:14;0.50;99.90
16966;DHT22;8599;47.852;12.070;2023-04-06T03:46:42;0.50;99.90
16966;DHT22;8599;47.852;12.070;2023-04-06T03:49:09;0.40;99.90
16966;DHT22;8599;47.852;12.070;2023-04-06T03:51:36;0.30;99.90
16966;DHT22;8599;47.852;12.070;2023-04-06T03:54:03;0.30;99.90
16966;DHT22;8599;47.852;12.070;2023-04-06T03:56:30;0.30;99.90
16966;DHT22;8599;47.852;12.070;2023-04-06T03:58:58;0.10;99.90
16966;DHT22;8599;47.852;12.070;2023-04-06T04:01:25;-0.10;99.90
16966;DHT22;8599;47.852;12.070;2023-04-06T04:03:53;0.00;99.90
16966;DHT22;8599;47.852;12.070;2023-04-06T04:06:20;0.10;99.90
16966;DHT22;8599;47.852;12.070;2023-04-06T04:08:47;0.10;99.90
16966;DHT22;8599;47.852;12.070;2023-04-06T04:11:14;0.10;99.90
16966;DHT22;8599;47.852;12.070;2023-04-06T04:13:41;0.10;99.90
16966;DHT22;8599;47.852;12.070;2023-04-06T04:16:09;0.10;99.90
16966;DHT22;8599;47.852;12.070;2023-04-06T04:18:36;0.00;99.90
16966;DHT22;8599;47.852;12.070;2023-04-06T04:21:03;0.00;99.90
16966;DHT22;8599;47.852;12.070;2023-04-06T04:23:30;0.00;99.90
16966;DHT22;8599;47.852;12.070;2023-04-06T04:25:57;0.00;99.90
16966;DHT22;8599;47.852;12.070;2023-04-06T04:28:24;0.00;99.90
16966;DHT22;8599;47.852;12.070;2023-04-06T04:30:51;0.00;99.90
16966;DHT22;8599;47.852;12.070;2023-04-06T04:33:19;0.00;99.90
16966;DHT22;8599;47.852;12.070;2023-04-06T04:35:46;-0.10;99.90
16966;DHT22;8599;47.852;12.070;2023-04-06T04:38:13;-0.30;99.90
16966;DHT22;8599;47.852;12.070;2023-04-06T04:40:40;-0.60;99.90
16966;DHT22;8599;47.852;12.070;2023-04-06T04:43:07;-0.50;99.90
16966;DHT22;8599;47.852;12.070;2023-04-06T04:45:34;-0.40;99.90
16966;DHT22;8599;47.852;12.070;2023-04-06T04:48:01;-0.40;99.90
16966;DHT22;8599;47.852;12.070;2023-04-06T04:50:29;-0.40;99.90
16966;DHT22;8599;47.852;12.070;2023-04-06T04:52:56;-0.40;99.90
16966;DHT22;8599;47.852;12.070;2023-04-06T04:55:23;-0.30;99.90
16966;DHT22;8599;47.852;12.070;2023-04-06T04:57:50;-0.40;99.90
16966;DHT22;8599;47.852;12.070;2023-04-06T05:00:17;-0.50;99.90
16966;DHT22;8599;47.852;12.070;2023-04-06T05:02:44;-0.60;99.90
16966;DHT22;8599;47.852;12.070;2023-04-06T05:05:11;-0.70;99.90
16966;DHT22;8599;47.852;12.070;2023-04-06T05:07:39;-0.70;99.90
16966;DHT22;8599;47.852;12.070;2023-04-06T05:10:07;-0.70;99.90
16966;DHT22;8599;47.852;12.070;2023-04-06T05:12:34;-0.60;99.90
16966;DHT22;8599;47.852;12.070;2023-04-06T05:15:01;-0.60;99.90
16966;DHT22;8599;47.852;12.070;2023-04-06T05:17:28;-0.50;99.90
16966;DHT22;8599;47.852;12.070;2023-04-06T05:19:55;-0.50;99.90
16966;DHT22;8599;47.852;12.070;2023-04-06T05:22:22;-0.40;99.90
16966;DHT22;8599;47.852;12.070;2023-04-06T05:24:50;-0.30;99.90
16966;DHT22;8599;47.852;12.070;2023-04-06T05:27:17;-0.20;99.90
16966;DHT22;8599;47.852;12.070;2023-04-06T05:29:44;-0.10;99.90
16966;DHT22;8599;47.852;12.070;2023-04-06T05:32:11;0.00;99.90
16966;DHT22;8599;47.852;12.070;2023-04-06T05:34:39;0.10;99.90
16966;DHT22;8599;47.852;12.070;2023-04-06T05:37:06;0.30;99.90
16966;DHT22;8599;47.852;12.070;2023-04-06T05:39:33;0.30;99.90
16966;DHT22;8599;47.852;12.070;2023-04-06T05:42:04;0.30;99.90
16966;DHT22;8599;47.852;12.070;2023-04-06T05:44:32;0.40;99.90
16966;DHT22;8599;47.852;12.070;2023-04-06T05:46:59;0.40;99.90
16966;DHT22;8599;47.852;12.070;2023-04-06T05:49:25;0.50;99.90
16966;DHT22;8599;47.852;12.070;2023-04-06T05:51:52;0.60;99.90
16966;DHT22;8599;47.852;12.070;2023-04-06T05:54:20;0.60;99.90
16966;DHT22;8599;47.852;12.070;2023-04-06T05:56:46;0.70;99.90
16966;DHT22;8599;47.852;12.070;2023-04-06T05:59:15;0.80;99.90
16966;DHT22;8599;47.852;12.070;2023-04-06T06:01:42;0.90;99.90
16966;DHT22;8599;47.852;12.070;2023-04-06T06:04:08;0.90;99.90
16966;DHT22;8599;47.852;12.070;2023-04-06T06:06:35;1.00;99.90
16966;DHT22;8599;47.852;12.070;2023-04-06T06:09:03;1.10;99.90
16966;DHT22;8599;47.852;12.070;2023-04-06T06:11:30;1.20;99.90
16966;DHT22;8599;47.852;12.070;2023-04-06T06:13:58;1.20;99.90
16966;DHT22;8599;47.852;12.070;2023-04-06T06:16:26;1.20;99.90
16966;DHT22;8599;47.852;12.070;2023-04-06T06:18:53;1.30;99.90
16966;DHT22;8599;47.852;12.070;2023-04-06T06:21:20;1.40;99.90
16966;DHT22;8599;47.852;12.070;2023-04-06T06:23:47;1.50;99.90
16966;DHT22;8599;47.852;12.070;2023-04-06T06:26:15;1.70;99.90
16966;DHT22;8599;47.852;12.070;2023-04-06T06:28:42;1.80;99.90
16966;DHT22;8599;47.852;12.070;2023-04-06T06:31:09;1.80;99.90
16966;DHT22;8599;47.852;12.070;2023-04-06T06:33:38;1.80;99.90
16966;DHT22;8599;47.852;12.070;2023-04-06T06:36:05;1.80;99.90
16966;DHT22;8599;47.852;12.070;2023-04-06T06:38:32;1.90;99.90
16966;DHT22;8599;47.852;12.070;2023-04-06T06:40:59;2.00;99.90
16966;DHT22;8599;47.852;12.070;2023-04-06T06:43:26;2.10;99.90
16966;DHT22;8599;47.852;12.070;2023-04-06T06:45:52;2.20;99.90
16966;DHT22;8599;47.852;12.070;2023-04-06T06:48:19;2.30;99.90
16966;DHT22;8599;47.852;12.070;2023-04-06T06:50:48;2.40;99.90
16966;DHT22;8599;47.852;12.070;2023-04-06T06:53:15;2.60;99.90
16966;DHT22;8599;47.852;12.070;2023-04-06T06:55:42;2.70;99.90
16966;DHT22;8599;47.852;12.070;2023-04-06T06:58:10;2.70;99.90
16966;DHT22;8599;47.852;12.070;2023-04-06T07:00:37;2.70;99.90
16966;DHT22;8599;47.852;12.070;2023-04-06T07:03:04;2.80;99.90
16966;DHT22;8599;47.852;12.070;2023-04-06T07:05:31;2.90;99.90
16966;DHT22;8599;47.852;12.070;2023-04-06T07:07:59;2.90;99.90
16966;DHT22;8599;47.852;12.070;2023-04-06T07:10:26;3.00;99.90
16966;DHT22;8599;47.852;12.070;2023-04-06T07:12:53;3.00;99.90
16966;DHT22;8599;47.852;12.070;2023-04-06T07:15:20;3.10;99.90
16966;DHT22;8599;47.852;12.070;2023-04-06T07:17:47;3.10;99.90
16966;DHT22;8599;47.852;12.070;2023-04-06T07:20:14;3.10;99.90
16966;DHT22;8599;47.852;12.070;2023-04-06T07:22:42;3.20;99.90
16966;DHT22;8599;47.852;12.070;2023-04-06T07:25:11;3.10;99.90
16966;DHT22;8599;47.852;12.070;2023-04-06T07:27:38;3.10;99.90
16966;DHT22;8599;47.852;12.070;2023-04-06T07:30:06;3.10;99.90
16966;DHT22;8599;47.852;12.070;2023-04-06T07:32:33;3.20;99.90
16966;DHT22;8599;47.852;12.070;2023-04-06T07:35:01;3.40;99.90
16966;DHT22;8599;47.852;12.070;2023-04-06T07:37:28;3.50;99.90
16966;DHT22;8599;47.852;12.070;2023-04-06T07:39:55;3.60;99.90
16966;DHT22;8599;47.852;12.070;2023-04-06T07:42:23;3.70;99.90
16966;DHT22;8599;47.852;12.070;2023-04-06T07:44:50;3.80;99.90
16966;DHT22;8599;47.852;12.070;2023-04-06T07:47:17;3.90;99.90
16966;DHT22;8599;47.852;12.070;2023-04-06T07:49:44;4.10;99.90
16966;DHT22;8599;47.852;12.070;2023-04-06T07:52:11;4.30;99.90
16966;DHT22;8599;47.852;12.070;2023-04-06T07:54:38;4.50;99.90
16966;DHT22;8599;47.852;12.070;2023-04-06T07:57:04;4.50;99.90
16966;DHT22;8599;47.852;12.070;2023-04-06T07:59:33;4.60;99.90
16966;DHT22;8599;47.852;12.070;2023-04-06T08:02:00;4.70;99.90
16966;DHT22;8599;47.852;12.070;2023-04-06T08:04:27;4.80;99.90
16966;DHT22;8599;47.852;12.070;2023-04-06T08:06:54;4.90;99.90
16966;DHT22;8599;47.852;12.070;2023-04-06T08:09:21;5.00;99.90
16966;DHT22;8599;47.852;12.070;2023-04-06T08:11:47;5.20;99.90
16966;DHT22;8599;47.852;12.070;2023-04-06T08:14:15;5.20;99.90
16966;DHT22;8599;47.852;12.070;2023-04-06T08:16:43;5.30;99.90
16966;DHT22;8599;47.852;12.070;2023-04-06T08:19:10;5.40;99.90
16966;DHT22;8599;47.852;12.070;2023-04-06T08:21:37;5.50;99.90
16966;DHT22;8599;47.852;12.070;2023-04-06T08:24:05;5.50;99.90
16966;DHT22;8599;47.852;12.070;2023-04-06T08:26:32;5.50;99.90
16966;DHT22;8599;47.852;12.070;2023-04-06T08:28:59;5.50;99.90
16966;DHT22;8599;47.852;12.070;2023-04-06T08:31:26;5.50;99.90
16966;DHT22;8599;47.852;12.070;2023-04-06T08:33:54;5.50;99.90
16966;DHT22;8599;47.852;12.070;2023-04-06T08:36:21;5.70;99.90
16966;DHT22;8599;47.852;12.070;2023-04-06T08:38:49;5.70;99.90
16966;DHT22;8599;47.852;12.070;2023-04-06T08:41:16;5.80;99.90
16966;DHT22;8599;47.852;12.070;2023-04-06T08:43:46;5.90;99.90
16966;DHT22;8599;47.852;12.070;2023-04-06T08:46:13;5.80;99.90
16966;DHT22;8599;47.852;12.070;2023-04-06T08:48:42;5.80;99.90
16966;DHT22;8599;47.852;12.070;2023-04-06T08:51:10;5.90;99.90
16966;DHT22;8599;47.852;12.070;2023-04-06T08:53:38;6.00;99.90
16966;DHT22;8599;47.852;12.070;2023-04-06T08:56:05;6.10;99.90
16966;DHT22;8599;47.852;12.070;2023-04-06T08:58:35;6.10;99.90
16966;DHT22;8599;47.852;12.070;2023-04-06T09:01:05;6.10;99.90
16966;DHT22;8599;47.852;12.070;2023-04-06T09:03:36;6.10;99.90
16966;DHT22;8599;47.852;12.070;2023-04-06T09:06:04;6.10;99.90
16966;DHT22;8599;47.852;12.070;2023-04-06T09:08:33;6.30;99.90
16966;DHT22;8599;47.852;12.070;2023-04-06T09:11:01;6.40;99.90
16966;DHT22;8599;47.852;12.070;2023-04-06T09:13:28;6.50;99.90
16966;DHT22;8599;47.852;12.070;2023-04-06T09:15:59;6.50;99.90
16966;DHT22;8599;47.852;12.070;2023-04-06T09:18:30;6.50;99.90
16966;DHT22;8599;47.852;12.070;2023-04-06T09:20:59;6.70;99.90
16966;DHT22;8599;47.852;12.070;2023-04-06T09:23:26;6.80;99.90
16966;DHT22;8599;47.852;12.070;2023-04-06T09:26:08;6.80;99.40
16966;DHT22;8599;47.852;12.070;2023-04-06T09:28:46;6.70;98.00
16966;DHT22;8599;47.852;12.070;2023-04-06T09:31:14;6.80;98.30
16966;DHT22;8599;47.852;12.070;2023-04-06T09:33:43;6.90;97.50
16966;DHT22;8599;47.852;12.070;2023-04-06T09:36:11;7.00;97.50
16966;DHT22;8599;47.852;12.070;2023-04-06T09:38:51;7.10;97.20
16966;DHT22;8599;47.852;12.070;2023-04-06T09:41:25;7.20;97.30
16966;DHT22;8599;47.852;12.070;2023-04-06T09:44:01;7.20;98.60
16966;DHT22;8599;47.852;12.070;2023-04-06T09:46:30;7.30;98.60
16966;DHT22;8599;47.852;12.070;2023-04-06T09:48:58;7.30;97.50
16966;DHT22;8599;47.852;12.070;2023-04-06T09:51:26;7.20;97.70
16966;DHT22;8599;47.852;12.070;2023-04-06T09:53:57;7.30;97.70
16966;DHT22;8599;47.852;12.070;2023-04-06T09:56:30;7.40;96.90
16966;DHT22;8599;47.852;12.070;2023-04-06T09:59:02;7.40;97.90
16966;DHT22;8599;47.852;12.070;2023-04-06T10:01:32;7.50;98.60
16966;DHT22;8599;47.852;12.070;2023-04-06T10:04:09;7.70;98.30
16966;DHT22;8599;47.852;12.070;2023-04-06T10:06:38;8.00;97.90
16966;DHT22;8599;47.852;12.070;2023-04-06T10:09:07;8.10;96.80
16966;DHT22;8599;47.852;12.070;2023-04-06T10:11:36;8.20;95.70
16966;DHT22;8599;47.852;12.070;2023-04-06T10:14:03;8.10;95.60
16966;DHT22;8599;47.852;12.070;2023-04-06T10:16:31;8.10;95.90
16966;DHT22;8599;47.852;12.070;2023-04-06T10:19:04;8.10;95.80
16966;DHT22;8599;47.852;12.070;2023-04-06T10:21:34;8.10;96.30
16966;DHT22;8599;47.852;12.070;2023-04-06T10:24:06;8.10;96.20
16966;DHT22;8599;47.852;12.070;2023-04-06T10:26:36;8.10;95.90
16966;DHT22;8599;47.852;12.070;2023-04-06T10:29:04;8.10;95.70
16966;DHT22;8599;47.852;12.070;2023-04-06T10:31:31;8.10;96.00
16966;DHT22;8599;47.852;12.070;2023-04-06T10:33:59;8.40;95.60
16966;DHT22;8599;47.852;12.070;2023-04-06T10:36:28;8.50;95.30
16966;DHT22;8599;47.852;12.070;2023-04-06T10:38:57;8.60;94.80
16966;DHT22;8599;47.852;12.070;2023-04-06T10:41:32;8.80;94.90
16966;DHT22;8599;47.852;12.070;2023-04-06T10:44:01;8.90;93.80
16966;DHT22;8599;47.852;12.070;2023-04-06T10:46:30;9.00;94.60
16966;DHT22;8599;47.852;12.070;2023-04-06T10:48:57;9.00;93.80
16966;DHT22;8599;47.852;12.070;2023-04-06T10:51:26;9.20;94.20
16966;DHT22;8599;47.852;12.070;2023-04-06T10:53:55;9.30;92.70
16966;DHT22;8599;47.852;12.070;2023-04-06T10:56:24;9.40;93.50
16966;DHT22;8599;47.852;12.070;2023-04-06T10:58:54;9.30;92.80
16966;DHT22;8599;47.852;12.070;2023-04-06T11:01:24;9.40;92.90
16966;DHT22;8599;47.852;12.070;2023-04-06T11:03:54;9.60;92.40
16966;DHT22;8599;47.852;12.070;2023-04-06T11:06:26;9.40;92.20
16966;DHT22;8599;47.852;12.070;2023-04-06T11:08:54;9.40;92.30
16966;DHT22;8599;47.852;12.070;2023-04-06T11:11:24;9.40;93.30
16966;DHT22;8599;47.852;12.070;2023-04-06T11:13:53;9.60;91.80
16966;DHT22;8599;47.852;12.070;2023-04-06T11:16:23;9.90;92.50
16966;DHT22;8599;47.852;12.070;2023-04-06T11:18:55;10.00;91.20
16966;DHT22;8599;47.852;12.070;2023-04-06T11:21:33;10.00;91.30
16966;DHT22;8599;47.852;12.070;2023-04-06T11:24:05;10.00;91.00
16966;DHT22;8599;47.852;12.070;2023-04-06T11:26:37;10.10;91.50
16966;DHT22;8599;47.852;12.070;2023-04-06T11:29:04;10.10;90.80
16966;DHT22;8599;47.852;12.070;2023-04-06T11:31:38;10.30;91.00
16966;DHT22;8599;47.852;12.070;2023-04-06T11:34:09;10.40;89.30
16966;DHT22;8599;47.852;12.070;2023-04-06T11:36:39;10.10;90.40
16966;DHT22;8599;47.852;12.070;2023-04-06T11:39:06;10.20;90.00
16966;DHT22;8599;47.852;12.070;2023-04-06T11:41:33;10.60;89.60
16966;DHT22;8599;47.852;12.070;2023-04-06T11:44:01;10.80;88.50
16966;DHT22;8599;47.852;12.070;2023-04-06T11:46:28;10.90;88.40
16966;DHT22;8599;47.852;12.070;2023-04-06T11:48:59;11.10;87.10
16966;DHT22;8599;47.852;12.070;2023-04-06T11:51:27;11.10;85.30
16966;DHT22;8599;47.852;12.070;2023-04-06T11:53:54;11.20;87.90
16966;DHT22;8599;47.852;12.070;2023-04-06T11:56:25;11.30;87.30
16966;DHT22;8599;47.852;12.070;2023-04-06T11:58:53;11.20;85.30
16966;DHT22;8599;47.852;12.070;2023-04-06T12:01:20;10.90;86.70
16966;DHT22;8599;47.852;12.070;2023-04-06T12:03:47;10.80;86.70
16966;DHT22;8599;47.852;12.070;2023-04-06T12:06:15;10.70;89.50
16966;DHT22;8599;47.852;12.070;2023-04-06T12:08:42;10.70;88.30
16966;DHT22;8599;47.852;12.070;2023-04-06T12:11:10;10.50;88.50
16966;DHT22;8599;47.852;12.070;2023-04-06T12:13:37;10.40;90.20
16966;DHT22;8599;47.852;12.070;2023-04-06T12:16:04;10.60;89.80
16966;DHT22;8599;47.852;12.070;2023-04-06T12:18:31;10.80;88.80
16966;DHT22;8599;47.852;12.070;2023-04-06T12:20:58;11.00;88.20
16966;DHT22;8599;47.852;12.070;2023-04-06T12:23:26;11.10;85.30
16966;DHT22;8599;47.852;12.070;2023-04-06T12:25:53;11.20;87.30
16966;DHT22;8599;47.852;12.070;2023-04-06T12:28:20;11.00;88.70
16966;DHT22;8599;47.852;12.070;2023-04-06T12:30:48;10.90;87.60
16966;DHT22;8599;47.852;12.070;2023-04-06T12:33:16;10.90;87.40
16966;DHT22;8599;47.852;12.070;2023-04-06T12:35:43;10.90;89.50
16966;DHT22;8599;47.852;12.070;2023-04-06T12:38:10;11.10;88.80
16966;DHT22;8599;47.852;12.070;2023-04-06T12:40:39;11.00;86.10
16966;DHT22;8599;47.852;12.070;2023-04-06T12:43:06;11.10;86.70
16966;DHT22;8599;47.852;12.070;2023-04-06T12:45:33;11.20;86.30
16966;DHT22;8599;47.852;12.070;2023-04-06T12:48:00;11.10;84.40
16966;DHT22;8599;47.852;12.070;2023-04-06T12:50:27;10.90;85.70
16966;DHT22;8599;47.852;12.070;2023-04-06T12:52:54;11.00;85.60
16966;DHT22;8599;47.852;12.070;2023-04-06T12:55:22;11.00;85.50
16966;DHT22;8599;47.852;12.070;2023-04-06T12:57:50;11.30;85.20
16966;DHT22;8599;47.852;12.070;2023-04-06T13:00:18;11.80;85.50
16966;DHT22;8599;47.852;12.070;2023-04-06T13:02:45;12.30;82.80
16966;DHT22;8599;47.852;12.070;2023-04-06T13:05:13;12.60;81.30
16966;DHT22;8599;47.852;12.070;2023-04-06T13:07:44;12.90;77.60
16966;DHT22;8599;47.852;12.070;2023-04-06T13:10:11;12.70;78.30
16966;DHT22;8599;47.852;12.070;2023-04-06T13:12:38;12.40;81.10
16966;DHT22;8599;47.852;12.070;2023-04-06T13:15:07;12.10;78.90
16966;DHT22;8599;47.852;12.070;2023-04-06T13:17:35;11.80;78.20
16966;DHT22;8599;47.852;12.070;2023-04-06T13:20:02;11.50;78.40
16966;DHT22;8599;47.852;12.070;2023-04-06T13:22:29;11.20;79.90
16966;DHT22;8599;47.852;12.070;2023-04-06T13:24:56;11.10;81.50
16966;DHT22;8599;47.852;12.070;2023-04-06T13:27:23;11.30;79.90
16966;DHT22;8599;47.852;12.070;2023-04-06T13:29:50;11.80;80.20
16966;DHT22;8599;47.852;12.070;2023-04-06T13:32:18;11.90;79.70
16966;DHT22;8599;47.852;12.070;2023-04-06T13:34:45;12.00;81.60
16966;DHT22;8599;47.852;12.070;2023-04-06T13:37:14;12.50;79.40
16966;DHT22;8599;47.852;12.070;2023-04-06T13:39:41;13.00;75.90
16966;DHT22;8599;47.852;12.070;2023-04-06T13:42:08;13.30;75.80
16966;DHT22;8599;47.852;12.070;2023-04-06T13:44:35;13.30;74.60
16966;DHT22;8599;47.852;12.070;2023-04-06T13:47:02;13.50;74.90
16966;DHT22;8599;47.852;12.070;2023-04-06T13:49:30;13.70;76.40
16966;DHT22;8599;47.852;12.070;2023-04-06T13:51:58;13.90;72.20
16966;DHT22;8599;47.852;12.070;2023-04-06T13:54:26;14.10;72.60
16966;DHT22;8599;47.852;12.070;2023-04-06T13:56:53;14.00;70.90
16966;DHT22;8599;47.852;12.070;2023-04-06T13:59:20;13.50;70.90
16966;DHT22;8599;47.852;12.070;2023-04-06T14:01:48;12.30;71.40
16966;DHT22;8599;47.852;12.070;2023-04-06T14:04:14;12.20;74.80
16966;DHT22;8599;47.852;12.070;2023-04-06T14:06:44;12.20;73.80
16966;DHT22;8599;47.852;12.070;2023-04-06T14:09:11;12.20;73.10
16966;DHT22;8599;47.852;12.070;2023-04-06T14:11:38;12.60;72.80
16966;DHT22;8599;47.852;12.070;2023-04-06T14:14:04;13.10;73.00
16966;DHT22;8599;47.852;12.070;2023-04-06T14:16:31;13.70;71.80
16966;DHT22;8599;47.852;12.070;2023-04-06T14:18:58;14.40;71.10
16966;DHT22;8599;47.852;12.070;2023-04-06T14:21:25;15.10;67.90
16966;DHT22;8599;47.852;12.070;2023-04-06T14:23:53;15.10;67.60
16966;DHT22;8599;47.852;12.070;2023-04-06T14:26:20;14.80;66.50
16966;DHT22;8599;47.852;12.070;2023-04-06T14:28:48;14.80;66.70
16966;DHT22;8599;47.852;12.070;2023-04-06T14:31:15;14.60;66.70
16966;DHT22;8599;47.852;12.070;2023-04-06T14:33:42;14.20;66.90
16966;DHT22;8599;47.852;12.070;2023-04-06T14:36:09;14.10;67.20
16966;DHT22;8599;47.852;12.070;2023-04-06T14:38:36;14.10;68.10
16966;DHT22;8599;47.852;12.070;2023-04-06T14:41:05;14.30;68.20
16966;DHT22;8599;47.852;12.070;2023-04-06T14:43:32;14.30;67.10
16966;DHT22;8599;47.852;12.070;2023-04-06T14:46:02;14.10;67.20
16966;DHT22;8599;47.852;12.070;2023-04-06T14:48:28;13.70;67.70
16966;DHT22;8599;47.852;12.070;2023-04-06T14:50:56;13.30;67.40
16966;DHT22;8599;47.852;12.070;2023-04-06T14:53:22;13.00;68.40
16966;DHT22;8599;47.852;12.070;2023-04-06T14:55:50;12.60;68.50
16966;DHT22;8599;47.852;12.070;2023-04-06T14:58:19;12.30;69.00
16966;DHT22;8599;47.852;12.070;2023-04-06T15:00:46;12.10;75.70
16966;DHT22;8599;47.852;12.070;2023-04-06T15:03:13;12.60;76.60
16966;DHT22;8599;47.852;12.070;2023-04-06T15:05:40;13.40;75.60
16966;DHT22;8599;47.852;12.070;2023-04-06T15:08:07;14.10;72.90
16966;DHT22;8599;47.852;12.070;2023-04-06T15:10:35;14.30;72.10
16966;DHT22;8599;47.852;12.070;2023-04-06T15:13:02;13.90;71.20
16966;DHT22;8599;47.852;12.070;2023-04-06T15:15:30;13.70;71.10
16966;DHT22;8599;47.852;12.070;2023-04-06T15:17:57;13.50;74.40
16966;DHT22;8599;47.852;12.070;2023-04-06T15:20:24;13.10;73.80
16966;DHT22;8599;47.852;12.070;2023-04-06T15:22:51;12.80;74.20
16966;DHT22;8599;47.852;12.070;2023-04-06T15:25:18;12.50;73.90
16966;DHT22;8599;47.852;12.070;2023-04-06T15:27:45;12.10;74.50
16966;DHT22;8599;47.852;12.070;2023-04-06T15:30:12;12.30;74.90
16966;DHT22;8599;47.852;12.070;2023-04-06T15:32:52;12.00;76.10
16966;DHT22;8599;47.852;12.070;2023-04-06T15:35:19;11.80;74.30
16966;DHT22;8599;47.852;12.070;2023-04-06T15:37:46;11.80;76.00
16966;DHT22;8599;47.852;12.070;2023-04-06T15:40:13;11.70;76.30
16966;DHT22;8599;47.852;12.070;2023-04-06T15:42:41;12.00;74.70